createdAt,value
2022-07-28T00:00:00.515Z,101550.06
2022-07-28T00:02:27.632Z,101561.41
2022-07-28T00:04:54.832Z,101553.38
2022-07-28T00:07:21.926Z,101551.69
2022-07-28T00:09:48.914Z,101558.41
2022-07-28T00:12:16.076Z,101560.34
2022-07-28T00:14:43.023Z,101556.50
2022-07-28T00:17:10.182Z,101563.09
2022-07-28T00:19:37.245Z,101559.88
2022-07-28T00:22:04.637Z,101565.72
2022-07-28T00:24:31.804Z,101560.00
2022-07-28T00:26:59.924Z,101551.59
2022-07-28T00:29:50.011Z,101553.16
2022-07-28T00:32:14.127Z,101556.63
2022-07-28T00:34:41.219Z,101551.66
2022-07-28T00:37:13.288Z,101549.28
2022-07-28T00:39:41.907Z,101557.59
2022-07-28T00:42:09.398Z,101549.69
2022-07-28T00:44:36.527Z,101551.75
2022-07-28T00:47:03.556Z,101544.84
2022-07-28T00:49:30.648Z,101549.50
2022-07-28T00:51:57.841Z,101550.25
2022-07-28T00:54:24.834Z,101543.97
2022-07-28T00:56:51.774Z,101552.19
2022-07-28T00:59:18.757Z,101547.09
2022-07-28T01:01:46.311Z,101542.88
2022-07-28T01:04:13.897Z,101544.09
2022-07-28T01:07:32.811Z,101540.88
2022-07-28T01:10:18.463Z,101537.72
2022-07-28T01:13:07.710Z,101542.78
2022-07-28T01:15:56.000Z,101543.56
2022-07-28T01:18:30.124Z,101541.81
2022-07-28T01:21:12.316Z,101547.22
2022-07-28T01:24:22.616Z,101544.59
2022-07-28T01:27:06.312Z,101539.22
2022-07-28T01:30:03.422Z,101541.25
2022-07-28T01:32:46.486Z,101542.13
2022-07-28T01:35:23.176Z,101547.94
2022-07-28T01:37:54.968Z,101545.28
2022-07-28T01:40:26.421Z,101538.13
2022-07-28T01:43:00.207Z,101543.16
2022-07-28T01:45:28.417Z,101545.13
2022-07-28T01:47:59.495Z,101536.94
2022-07-28T01:50:28.176Z,101536.63
2022-07-28T01:52:56.923Z,101538.34
2022-07-28T01:55:25.981Z,101525.38
2022-07-28T01:57:55.709Z,101529.50
2022-07-28T02:00:24.908Z,101526.69
2022-07-28T02:02:54.440Z,101530.16
2022-07-28T02:05:23.638Z,101521.28
2022-07-28T02:07:53.648Z,101516.88
2022-07-28T02:10:22.469Z,101516.78
2022-07-28T02:12:50.404Z,101514.84
2022-07-28T02:15:19.429Z,101512.16
2022-07-28T02:17:48.428Z,101518.81
2022-07-28T02:20:18.081Z,101523.56
2022-07-28T02:22:51.656Z,101520.75
2022-07-28T02:25:20.929Z,101515.56
2022-07-28T02:28:00.203Z,101520.88
2022-07-28T02:30:38.013Z,101519.13
2022-07-28T02:33:15.226Z,101517.69
2022-07-28T02:35:53.000Z,101512.44
2022-07-28T02:38:46.351Z,101511.53
2022-07-28T02:41:22.644Z,101521.56
2022-07-28T02:43:52.993Z,101510.78
2022-07-28T02:46:26.029Z,101505.91
2022-07-28T02:49:00.768Z,101518.59
2022-07-28T02:51:29.479Z,101521.28
2022-07-28T02:53:58.397Z,101520.31
2022-07-28T02:56:26.536Z,101525.81
2022-07-28T02:58:55.613Z,101524.28
2022-07-28T03:01:22.975Z,101536.03
2022-07-28T03:03:51.122Z,101522.66
2022-07-28T03:06:28.592Z,101530.84
2022-07-28T03:08:57.367Z,101539.91
2022-07-28T03:11:24.693Z,101542.66
2022-07-28T03:13:51.698Z,101538.34
2022-07-28T03:16:18.761Z,101546.56
2022-07-28T03:18:45.782Z,101553.78
2022-07-28T03:21:12.781Z,101547.31
2022-07-28T03:23:45.781Z,101549.06
2022-07-28T03:26:37.240Z,101540.09
2022-07-28T03:29:05.633Z,101556.25
2022-07-28T03:31:34.073Z,101544.03
2022-07-28T03:34:01.607Z,101545.78
2022-07-28T03:36:40.077Z,101562.59
2022-07-28T03:39:11.766Z,101556.47
2022-07-28T03:41:41.204Z,101557.31
2022-07-28T03:44:11.039Z,101555.41
2022-07-28T03:46:47.633Z,101557.31
2022-07-28T03:49:14.667Z,101557.22
2022-07-28T03:51:41.794Z,101543.09
2022-07-28T03:54:09.165Z,101554.34
2022-07-28T03:56:36.056Z,101555.41
2022-07-28T03:59:03.041Z,101551.56
2022-07-28T04:01:30.058Z,101562.66
2022-07-28T04:03:57.594Z,101560.34
2022-07-28T04:06:24.657Z,101557.84
2022-07-28T04:08:51.933Z,101557.19
2022-07-28T04:11:18.830Z,101548.16
2022-07-28T04:13:45.952Z,101547.75
2022-07-28T04:16:12.998Z,101556.59
2022-07-28T04:18:40.007Z,101551.03
2022-07-28T04:21:07.012Z,101554.38
2022-07-28T04:23:34.089Z,101563.13
2022-07-28T04:26:01.014Z,101572.06
2022-07-28T04:28:27.951Z,101573.69
2022-07-28T04:30:54.972Z,101568.22
2022-07-28T04:33:22.088Z,101568.97
2022-07-28T04:35:49.053Z,101559.75
2022-07-28T04:38:17.994Z,101563.59
2022-07-28T04:40:45.608Z,101563.06
2022-07-28T04:43:12.995Z,101565.06
2022-07-28T04:45:41.116Z,101560.84
2022-07-28T04:48:14.191Z,101564.59
2022-07-28T04:50:45.541Z,101557.19
2022-07-28T04:53:12.951Z,101555.16
2022-07-28T04:55:40.129Z,101548.69
2022-07-28T04:58:07.710Z,101549.47
2022-07-28T05:00:36.499Z,101555.41
2022-07-28T05:03:04.290Z,101552.53
2022-07-28T05:05:31.717Z,101548.59
2022-07-28T05:07:59.076Z,101550.31
2022-07-28T05:10:26.008Z,101551.09
2022-07-28T05:12:54.633Z,101557.22
2022-07-28T05:15:21.665Z,101562.22
2022-07-28T05:17:50.205Z,101559.25
2022-07-28T05:20:17.438Z,101560.84
2022-07-28T05:22:53.722Z,101554.44
2022-07-28T05:25:23.687Z,101552.09
2022-07-28T05:27:53.065Z,101549.09
2022-07-28T05:30:21.004Z,101546.63
2022-07-28T05:32:49.551Z,101553.03
2022-07-28T05:35:17.096Z,101559.53
2022-07-28T05:37:44.207Z,101552.88
2022-07-28T05:40:14.840Z,101556.56
2022-07-28T05:42:43.062Z,101559.50
2022-07-28T05:45:16.511Z,101566.31
2022-07-28T05:47:52.190Z,101565.50
2022-07-28T05:50:26.023Z,101561.03
2022-07-28T05:52:53.030Z,101562.88
2022-07-28T05:55:20.026Z,101572.78
2022-07-28T05:57:47.200Z,101565.44
2022-07-28T06:00:18.715Z,101562.75
2022-07-28T06:02:49.131Z,101574.81
2022-07-28T06:05:18.714Z,101565.69
2022-07-28T06:07:47.448Z,101562.66
2022-07-28T06:10:18.180Z,101561.44
2022-07-28T06:12:48.306Z,101556.63
2022-07-28T06:15:22.402Z,101557.75
2022-07-28T06:17:55.222Z,101565.97
2022-07-28T06:20:23.840Z,101566.19
2022-07-28T06:22:53.710Z,101562.66
2022-07-28T06:25:27.280Z,101563.44
2022-07-28T06:27:58.480Z,101558.78
2022-07-28T06:30:26.026Z,101564.47
2022-07-28T06:32:53.443Z,101555.56
2022-07-28T06:35:21.023Z,101560.75
2022-07-28T06:37:50.693Z,101570.44
2022-07-28T06:40:20.135Z,101565.84
2022-07-28T06:42:47.663Z,101555.75
2022-07-28T06:45:19.722Z,101558.34
2022-07-28T06:47:49.040Z,101570.50
2022-07-28T06:50:25.954Z,101560.78
2022-07-28T06:52:59.185Z,101564.56
2022-07-28T06:55:28.462Z,101568.72
2022-07-28T06:58:06.242Z,101566.75
2022-07-28T07:00:33.508Z,101574.66
2022-07-28T07:03:01.185Z,101575.84
2022-07-28T07:05:32.033Z,101571.22
2022-07-28T07:07:59.551Z,101570.22
2022-07-28T07:10:26.729Z,101577.94
2022-07-28T07:12:53.979Z,101576.69
2022-07-28T07:15:20.884Z,101566.25
2022-07-28T07:17:47.913Z,101560.06
2022-07-28T07:20:17.165Z,101561.94
2022-07-28T07:22:47.403Z,101554.00
2022-07-28T07:25:17.295Z,101559.94
2022-07-28T07:27:45.734Z,101552.00
2022-07-28T07:30:14.596Z,101549.00
2022-07-28T07:32:42.188Z,101552.28
2022-07-28T07:35:09.813Z,101544.38
2022-07-28T07:37:36.762Z,101554.06
2022-07-28T07:40:05.845Z,101552.19
2022-07-28T07:42:33.272Z,101538.91
2022-07-28T07:45:00.355Z,101550.31
2022-07-28T07:47:27.837Z,101536.44
2022-07-28T07:49:54.831Z,101535.91
2022-07-28T07:52:21.895Z,101541.16
2022-07-28T07:54:48.863Z,101540.34
2022-07-28T07:57:15.905Z,101530.97
2022-07-28T07:59:42.911Z,101532.53
2022-07-28T08:02:09.999Z,101533.63
2022-07-28T08:04:38.571Z,101531.81
2022-07-28T08:07:07.370Z,101524.16
2022-07-28T08:09:34.898Z,101522.44
2022-07-28T08:12:02.433Z,101530.06
2022-07-28T08:14:29.491Z,101526.63
2022-07-28T08:16:58.485Z,101532.81
2022-07-28T08:19:26.321Z,101534.00
2022-07-28T08:21:55.328Z,101536.84
2022-07-28T08:24:32.435Z,101534.81
2022-07-28T08:27:02.204Z,101520.66
2022-07-28T08:29:29.440Z,101524.09
2022-07-28T08:31:57.218Z,101524.66
2022-07-28T08:34:31.201Z,101518.97
2022-07-28T08:37:03.185Z,101513.41
2022-07-28T08:39:34.887Z,101513.75
2022-07-28T08:42:07.098Z,101517.56
2022-07-28T08:44:47.895Z,101519.19
2022-07-28T08:47:16.709Z,101511.34
2022-07-28T08:49:43.946Z,101521.34
2022-07-28T08:52:13.710Z,101519.28
2022-07-28T08:54:48.835Z,101511.59
2022-07-28T08:57:29.640Z,101515.88
2022-07-28T08:59:56.816Z,101505.94
2022-07-28T09:02:29.041Z,101515.72
2022-07-28T09:04:57.830Z,101504.44
2022-07-28T09:07:25.539Z,101502.91
2022-07-28T09:09:52.653Z,101508.19
2022-07-28T09:12:27.194Z,101509.53
2022-07-28T09:14:54.786Z,101498.41
2022-07-28T09:17:21.704Z,101501.31
2022-07-28T09:19:48.778Z,101510.75
2022-07-28T09:22:15.737Z,101495.81
2022-07-28T09:24:46.616Z,101502.38
2022-07-28T09:27:18.103Z,101505.16
2022-07-28T09:29:48.598Z,101490.53
2022-07-28T09:32:17.159Z,101494.09
2022-07-28T09:34:51.748Z,101492.16
2022-07-28T09:37:27.627Z,101492.28
2022-07-28T09:40:03.813Z,101482.28
2022-07-28T09:42:46.847Z,101488.47
2022-07-28T09:45:23.022Z,101483.81
2022-07-28T09:48:10.317Z,101483.13
2022-07-28T09:50:42.269Z,101482.34
2022-07-28T09:53:22.906Z,101480.28
2022-07-28T09:56:02.807Z,101478.66
2022-07-28T09:58:30.904Z,101478.81
2022-07-28T10:01:10.890Z,101480.19
2022-07-28T10:03:42.851Z,101469.50
2022-07-28T10:06:16.867Z,101468.47
2022-07-28T10:08:49.506Z,101463.16
2022-07-28T10:11:24.698Z,101472.97
2022-07-28T10:14:06.514Z,101469.22
2022-07-28T10:16:53.347Z,101462.28
2022-07-28T10:19:20.513Z,101466.06
2022-07-28T10:21:50.004Z,101459.94
2022-07-28T10:24:24.151Z,101448.09
2022-07-28T10:26:52.694Z,101459.88
2022-07-28T10:29:22.419Z,101460.75
2022-07-28T10:31:55.530Z,101458.56
2022-07-28T10:34:39.316Z,101451.56
2022-07-28T10:37:10.528Z,101448.50
2022-07-28T10:39:45.105Z,101455.31
2022-07-28T10:42:12.619Z,101446.31
2022-07-28T10:44:41.555Z,101443.34
2022-07-28T10:47:18.607Z,101431.44
2022-07-28T10:49:48.969Z,101443.13
2022-07-28T10:55:49.465Z,101444.00
2022-07-28T10:58:46.459Z,101441.09
2022-07-28T11:01:51.268Z,101445.91
2022-07-28T11:04:49.134Z,101434.94
2022-07-28T11:07:18.548Z,101432.31
2022-07-28T11:09:49.707Z,101425.78
2022-07-28T11:12:47.427Z,101429.59
2022-07-28T11:15:36.632Z,101412.38
2022-07-28T11:18:08.831Z,101422.91
2022-07-28T11:20:56.407Z,101427.88
2022-07-28T11:23:47.580Z,101423.63
2022-07-28T11:26:36.533Z,101418.31
2022-07-28T11:29:03.923Z,101418.25
2022-07-28T11:31:48.916Z,101402.53
2022-07-28T11:34:21.264Z,101403.09
2022-07-28T11:37:07.845Z,101405.47
2022-07-28T11:39:43.822Z,101409.84
2022-07-28T11:42:35.764Z,101404.94
2022-07-28T11:45:37.769Z,101399.88
2022-07-28T11:48:18.902Z,101407.91
2022-07-28T11:51:04.312Z,101408.22
2022-07-28T11:53:38.507Z,101392.59
2022-07-28T11:56:10.691Z,101382.03
2022-07-28T11:58:39.269Z,101398.69
2022-07-28T12:01:17.790Z,101395.53
2022-07-28T12:03:55.254Z,101403.06
2022-07-28T12:06:27.356Z,101394.94
2022-07-28T12:09:04.167Z,101385.81
2022-07-28T12:11:41.099Z,101375.38
2022-07-28T12:14:16.125Z,101376.13
2022-07-28T12:16:46.268Z,101366.78
2022-07-28T12:19:18.999Z,101369.19
2022-07-28T12:21:53.129Z,101373.75
2022-07-28T12:24:30.899Z,101364.47
2022-07-28T12:27:00.237Z,101363.75
2022-07-28T12:29:35.912Z,101360.91
2022-07-28T12:32:08.992Z,101356.47
2022-07-28T12:34:37.724Z,101341.88
2022-07-28T12:37:06.466Z,101347.00
2022-07-28T12:39:36.863Z,101345.13
2022-07-28T12:42:08.841Z,101350.22
2022-07-28T12:44:48.091Z,101354.03
2022-07-28T12:47:25.965Z,101346.97
2022-07-28T12:50:16.636Z,101349.09
2022-07-28T12:53:01.229Z,101345.06
2022-07-28T12:55:30.621Z,101322.66
2022-07-28T12:57:58.117Z,101347.19
2022-07-28T13:00:34.059Z,101342.56
2022-07-28T13:03:20.737Z,101344.22
2022-07-28T13:06:03.391Z,101349.69
2022-07-28T13:08:46.661Z,101344.38
2022-07-28T13:14:03.479Z,101338.84
2022-07-28T13:16:30.549Z,101339.84
2022-07-28T13:19:03.982Z,101337.88
2022-07-28T13:21:58.681Z,101337.50
2022-07-28T13:24:28.280Z,101332.06
2022-07-28T13:26:56.390Z,101328.91
2022-07-28T13:29:23.795Z,101316.34
2022-07-28T13:31:50.899Z,101322.31
2022-07-28T13:34:18.223Z,101323.97
2022-07-28T13:36:45.403Z,101318.44
2022-07-28T13:39:14.025Z,101318.00
2022-07-28T13:41:56.114Z,101311.44
2022-07-28T13:44:27.228Z,101303.56
2022-07-28T13:46:55.244Z,101294.63
2022-07-28T13:49:23.452Z,101296.75
2022-07-28T13:51:51.487Z,101303.13
2022-07-28T13:54:20.535Z,101298.88
2022-07-28T13:56:48.331Z,101289.50
2022-07-28T13:59:15.318Z,101290.56
2022-07-28T14:01:42.583Z,101298.44
2022-07-28T14:04:14.982Z,101291.00
2022-07-28T14:06:45.318Z,101300.19
2022-07-28T14:09:17.820Z,101290.34
2022-07-28T14:11:49.746Z,101283.09
2022-07-28T14:14:23.867Z,101283.28
2022-07-28T14:16:55.028Z,101284.81
2022-07-28T14:19:39.566Z,101288.00
2022-07-28T14:22:13.229Z,101277.91
2022-07-28T14:24:44.414Z,101276.00
2022-07-28T14:27:11.557Z,101273.50
2022-07-28T14:29:39.421Z,101282.47
2022-07-28T14:32:06.761Z,101278.88
2022-07-28T14:34:34.399Z,101270.34
2022-07-28T14:37:03.436Z,101287.63
2022-07-28T14:39:37.013Z,101269.28
2022-07-28T14:42:04.979Z,101274.63
2022-07-28T14:44:31.979Z,101269.28
2022-07-28T14:46:59.238Z,101277.81
2022-07-28T14:49:26.351Z,101275.06
2022-07-28T14:51:53.544Z,101269.72
2022-07-28T14:54:20.651Z,101275.44
2022-07-28T14:56:47.554Z,101270.53
2022-07-28T14:59:14.525Z,101258.44
2022-07-28T15:01:41.558Z,101268.22
2022-07-28T15:04:10.182Z,101268.88
2022-07-28T15:06:37.158Z,101266.13
2022-07-28T15:09:04.504Z,101255.66
2022-07-28T15:11:31.495Z,101264.56
2022-07-28T15:13:59.474Z,101253.47
2022-07-28T15:16:26.562Z,101255.78
2022-07-28T15:18:54.236Z,101243.47
2022-07-28T15:21:21.281Z,101251.78
2022-07-28T15:23:48.507Z,101253.91
2022-07-28T15:26:15.523Z,101252.22
2022-07-28T15:28:42.570Z,101250.28
2022-07-28T15:31:09.589Z,101247.41
2022-07-28T15:33:39.977Z,101243.53
2022-07-28T15:36:15.028Z,101243.53
2022-07-28T15:38:41.926Z,101248.00
2022-07-28T15:41:15.052Z,101253.72
2022-07-28T15:43:42.282Z,101240.69
2022-07-28T15:46:12.927Z,101246.56
2022-07-28T15:48:44.007Z,101242.41
2022-07-28T15:51:11.735Z,101246.00
2022-07-28T15:53:39.397Z,101234.94
2022-07-28T15:56:06.523Z,101237.41
2022-07-28T15:58:33.789Z,101244.06
2022-07-28T16:01:01.781Z,101225.56
2022-07-28T16:03:30.291Z,101232.09
2022-07-28T16:05:58.669Z,101223.72
2022-07-28T16:08:26.371Z,101225.56
2022-07-28T16:10:54.618Z,101221.72
2022-07-28T16:13:36.013Z,101222.00
2022-07-28T16:16:12.903Z,101218.88
2022-07-28T16:18:42.924Z,101222.25
2022-07-28T16:21:10.763Z,101216.09
2022-07-28T16:23:38.238Z,101213.34
2022-07-28T16:26:07.745Z,101216.94
2022-07-28T16:28:35.635Z,101216.72
2022-07-28T16:31:02.829Z,101218.66
2022-07-28T16:33:33.580Z,101222.91
2022-07-28T16:36:02.031Z,101220.16
2022-07-28T16:38:29.159Z,101223.59
2022-07-28T16:40:57.099Z,101217.47
2022-07-28T16:43:24.462Z,101219.00
2022-07-28T16:45:51.480Z,101213.91
2022-07-28T16:48:18.436Z,101210.50
2022-07-28T16:50:46.171Z,101215.38
2022-07-28T16:53:14.157Z,101197.22
2022-07-28T16:55:45.360Z,101210.75
2022-07-28T16:58:12.419Z,101214.53
2022-07-28T17:00:39.352Z,101207.13
2022-07-28T17:03:06.461Z,101207.50
2022-07-28T17:05:33.447Z,101206.06
2022-07-28T17:08:00.401Z,101199.88
2022-07-28T17:10:27.816Z,101206.25
2022-07-28T17:12:55.227Z,101217.09
2022-07-28T17:15:23.555Z,101211.53
2022-07-28T17:17:52.155Z,101207.69
2022-07-28T17:20:20.832Z,101203.59
2022-07-28T17:22:48.123Z,101202.63
2022-07-28T17:25:47.281Z,101206.00
2022-07-28T17:28:04.386Z,101204.03
2022-07-28T17:30:33.003Z,101217.97
2022-07-28T17:33:07.707Z,101213.25
2022-07-28T17:35:36.602Z,101206.56
2022-07-28T17:38:07.250Z,101212.03
2022-07-28T17:40:34.292Z,101205.59
2022-07-28T17:43:01.507Z,101204.31
2022-07-28T17:45:28.491Z,101202.78
2022-07-28T17:47:55.380Z,101205.75
2022-07-28T17:50:22.362Z,101194.19
2022-07-28T17:52:49.284Z,101205.03
2022-07-28T17:55:57.996Z,101200.50
2022-07-28T17:58:29.107Z,101197.59
2022-07-28T18:01:10.027Z,101189.63
2022-07-28T18:03:57.608Z,101207.81
2022-07-28T18:06:34.483Z,101207.06
2022-07-28T18:09:10.492Z,101209.09
2022-07-28T18:11:57.045Z,101198.56
2022-07-28T18:14:29.840Z,101205.34
2022-07-28T18:16:57.942Z,101205.78
2022-07-28T18:19:26.326Z,101204.13
2022-07-28T18:21:53.622Z,101209.88
2022-07-28T18:24:22.412Z,101216.38
2022-07-28T18:26:51.612Z,101223.47
2022-07-28T18:29:20.274Z,101207.25
2022-07-28T18:31:48.894Z,101212.84
2022-07-28T18:34:16.360Z,101210.88
2022-07-28T18:36:43.829Z,101214.88
2022-07-28T18:39:11.016Z,101209.25
2022-07-28T18:41:46.933Z,101204.16
2022-07-28T18:44:17.232Z,101202.81
2022-07-28T18:46:44.663Z,101201.00
2022-07-28T18:49:12.081Z,101202.97
2022-07-28T18:51:39.045Z,101204.56
2022-07-28T18:54:06.814Z,101201.72
2022-07-28T18:56:33.728Z,101206.72
2022-07-28T18:59:00.724Z,101197.31
2022-07-28T19:01:27.701Z,101198.91
2022-07-28T19:03:54.747Z,101207.91
2022-07-28T19:06:21.685Z,101203.78
2022-07-28T19:08:48.767Z,101208.28
2022-07-28T19:11:19.631Z,101206.44
2022-07-28T19:13:47.791Z,101210.13
2022-07-28T19:16:15.023Z,101206.94
2022-07-28T19:18:42.109Z,101213.81
2022-07-28T19:21:09.322Z,101213.50
2022-07-28T19:23:36.348Z,101214.78
2022-07-28T19:26:03.772Z,101216.34
2022-07-28T19:28:30.823Z,101213.63
2022-07-28T19:30:58.682Z,101216.22
2022-07-28T19:33:26.371Z,101222.91
2022-07-28T19:35:53.461Z,101233.72
2022-07-28T19:38:20.632Z,101232.22
2022-07-28T19:40:47.613Z,101234.28
2022-07-28T19:43:14.660Z,101231.56
2022-07-28T19:45:41.666Z,101230.06
2022-07-28T19:48:08.784Z,101246.88
2022-07-28T19:50:38.573Z,101232.34
2022-07-28T19:53:05.784Z,101251.03
2022-07-28T19:55:40.133Z,101251.19
2022-07-28T19:58:07.264Z,101241.59
2022-07-28T20:00:34.408Z,101258.88
2022-07-28T20:03:01.508Z,101245.19
2022-07-28T20:05:28.524Z,101256.50
2022-07-28T20:07:55.820Z,101254.75
2022-07-28T20:10:22.836Z,101251.13
2022-07-28T20:12:49.780Z,101268.94
2022-07-28T20:15:16.768Z,101258.81
2022-07-28T20:17:43.727Z,101270.44
2022-07-28T20:20:13.222Z,101265.78
2022-07-28T20:22:41.416Z,101270.88
2022-07-28T20:25:10.375Z,101276.16
2022-07-28T20:27:40.464Z,101277.69
2022-07-28T20:30:10.314Z,101269.28
2022-07-28T20:32:38.385Z,101263.63
2022-07-28T20:35:09.295Z,101275.03
2022-07-28T20:37:37.677Z,101275.00
2022-07-28T20:40:06.772Z,101274.66
2022-07-28T20:42:33.963Z,101273.44
2022-07-28T20:45:01.136Z,101278.38
2022-07-28T20:47:28.260Z,101278.84
2022-07-28T20:49:55.415Z,101274.59
2022-07-28T20:52:23.436Z,101270.44
2022-07-28T20:54:54.220Z,101281.84
2022-07-28T20:57:22.681Z,101286.97
2022-07-28T20:59:51.292Z,101286.03
2022-07-28T21:02:21.998Z,101284.09
2022-07-28T21:04:50.578Z,101282.53
2022-07-28T21:08:00.441Z,101287.59
2022-07-28T21:10:07.971Z,101286.53
2022-07-28T21:12:36.962Z,101289.44
2022-07-28T21:15:05.890Z,101280.88
2022-07-28T21:17:33.084Z,101285.94
2022-07-28T21:20:00.272Z,101286.75
2022-07-28T21:22:27.331Z,101289.97
2022-07-28T21:24:55.659Z,101290.56
2022-07-28T21:27:23.756Z,101293.75
2022-07-28T21:32:18.648Z,101279.13
2022-07-28T21:34:45.805Z,101292.78
2022-07-28T21:37:13.641Z,101287.63
2022-07-28T21:39:41.014Z,101296.09
2022-07-28T21:42:09.028Z,101299.44
2022-07-28T21:44:37.459Z,101297.16
2022-07-28T21:47:05.003Z,101293.34
2022-07-28T21:49:32.313Z,101299.50
2022-07-28T21:51:59.665Z,101295.38
2022-07-28T21:54:27.052Z,101299.25
2022-07-28T21:56:53.986Z,101298.88
2022-07-28T21:59:21.191Z,101301.91
2022-07-28T22:01:48.314Z,101312.97
2022-07-28T22:04:15.941Z,101318.50
2022-07-28T22:06:44.661Z,101321.22
2022-07-28T22:09:14.550Z,101308.34
2022-07-28T22:11:41.940Z,101320.66
2022-07-28T22:14:09.110Z,101327.25
2022-07-28T22:16:36.113Z,101322.97
2022-07-28T22:19:03.803Z,101320.56
2022-07-28T22:23:57.813Z,101320.16
2022-07-28T22:26:24.798Z,101323.03
2022-07-28T22:28:51.995Z,101334.22
2022-07-28T22:31:19.001Z,101326.66
2022-07-28T22:33:46.000Z,101332.13
2022-07-28T22:36:12.951Z,101336.72
2022-07-28T22:38:39.895Z,101333.13
2022-07-28T22:41:06.967Z,101337.00
2022-07-28T22:43:34.057Z,101341.03
2022-07-28T22:46:01.314Z,101335.91
2022-07-28T22:48:28.713Z,101343.34
2022-07-28T22:50:55.794Z,101330.50
2022-07-28T22:53:22.936Z,101340.22
2022-07-28T22:55:49.888Z,101343.09
2022-07-28T22:58:16.910Z,101337.78
2022-07-28T23:00:44.128Z,101342.38
2022-07-28T23:03:13.285Z,101338.91
2022-07-28T23:05:40.542Z,101343.38
2022-07-28T23:08:07.515Z,101333.75
2022-07-28T23:10:34.857Z,101331.91
2022-07-28T23:13:02.027Z,101325.19
2022-07-28T23:15:40.797Z,101328.75
2022-07-28T23:18:10.776Z,101331.22
2022-07-28T23:20:38.999Z,101339.41
2022-07-28T23:23:06.607Z,101336.13
2022-07-28T23:25:36.285Z,101332.97
2022-07-28T23:28:03.481Z,101337.00
2022-07-28T23:30:30.378Z,101332.69
2022-07-28T23:32:57.450Z,101329.13
2022-07-28T23:35:24.659Z,101329.56
2022-07-28T23:37:51.801Z,101332.72
2022-07-28T23:40:18.704Z,101329.44
2022-07-28T23:42:45.615Z,101322.25
2022-07-28T23:45:12.632Z,101324.13
2022-07-28T23:47:39.624Z,101314.25
2022-07-28T23:50:07.001Z,101321.53
2022-07-28T23:52:33.966Z,101320.53
2022-07-28T23:55:00.877Z,101308.97
2022-07-28T23:57:31.401Z,101314.84
